| time (UTC) | temp F | wind direction | speed MPH | gust MPH | rain 1hr in | rain 24hr in | rain mn in | humidity % | barometer mb |
| 20260905232019 | 67 | 338 | 1.0 | 3.0 | 0.00 | 0.00 | 0.00 | 76 | 990.5 |
| 20260905231019 | 68 | 113 | 1.0 | 3.0 | 0.00 | 0.00 | 0.00 | 76 | 990.4 |
| 20260905230021 | 68 | 0.0 | 1.0 | 0.00 | 0.00 | 0.00 | 74 | 990.3 | |
| 20260905225019 | 69 | 0.0 | 0.0 | 0.00 | 0.00 | 0.00 | 75 | 990.4 | |
| 20260905224019 | 69 | 0.0 | 0.0 | 0.00 | 0.00 | 0.00 | 73 | 990.3 | |
| 20260905223019 | 70 | 0.0 | 0.0 | 0.00 | 0.00 | 0.00 | 72 | 990.1 | |
| 20260905222019 | 70 | 0.0 | 1.0 | 0.00 | 0.00 | 0.00 | 71 | 990.0 | |
| 20260905221018 | 71 | 315 | 1.0 | 2.0 | 0.00 | 0.00 | 0.00 | 68 | 990.2 |
| 20260905220019 | 71 | 293 | 1.0 | 3.0 | 0.00 | 0.00 | 0.00 | 69 | 990.2 |
| 20260905215018 | 72 | 270 | 1.0 | 6.0 | 0.00 | 0.00 | 0.00 | 67 | 990.1 |
| 20260905214018 | 72 | 293 | 2.0 | 8.0 | 0.00 | 0.00 | 0.00 | 66 | 990.0 |
| 20260905213019 | 72 | 315 | 1.0 | 4.0 | 0.00 | 0.00 | 0.00 | 67 | 989.9 |
| 20260905212018 | 72 | 248 | 1.0 | 4.0 | 0.00 | 0.00 | 0.00 | 66 | 989.7 |
| 20260905211019 | 72 | 113 | 1.0 | 3.0 | 0.00 | 0.00 | 0.00 | 66 | 989.7 |
| 20260905210019 | 71 | 338 | 2.0 | 3.0 | 0.00 | 0.00 | 0.00 | 69 | 989.7 |
| 20260905205019 | 71 | 315 | 2.0 | 3.0 | 0.00 | 0.00 | 0.00 | 67 | 989.7 |
| 20260905204019 | 72 | 23 | 1.0 | 2.0 | 0.00 | 0.00 | 0.00 | 66 | 989.7 |
| 20260905203018 | 71 | 68 | 1.0 | 5.0 | 0.00 | 0.00 | 0.00 | 69 | 989.6 |
| 20260905202019 | 70 | 0.0 | 0.0 | 0.00 | 0.00 | 0.00 | 70 | 989.5 | |
| 20260905201018 | 70 | 315 | 1.0 | 3.0 | 0.00 | 0.00 | 0.00 | 70 | 989.4 |
| 20260905200018 | 71 | 68 | 1.0 | 3.0 | 0.00 | 0.00 | 0.00 | 69 | 989.4 |
| 20260905195020 | 71 | 338 | 1.0 | 4.0 | 0.00 | 0.00 | 0.00 | 68 | 989.4 |
| 20260905194019 | 71 | 315 | 3.0 | 8.0 | 0.00 | 0.00 | 0.00 | 67 | 989.4 |
| 20260905193018 | 71 | 45 | 1.0 | 4.0 | 0.00 | 0.00 | 0.00 | 68 | 989.4 |
| 20260905192019 | 71 | 113 | 1.0 | 4.0 | 0.00 | 0.00 | 0.00 | 68 | 989.4 |
| 20260905191019 | 71 | 68 | 2.0 | 7.0 | 0.00 | 0.00 | 0.00 | 66 | 989.4 |
| 20260905190018 | 72 | 113 | 2.0 | 4.0 | 0.00 | 0.00 | 0.00 | 66 | 989.4 |
| 20260905185019 | 73 | 0 | 1.0 | 4.0 | 0.00 | 0.00 | 0.00 | 64 | 989.5 |
| 20260905184122 | 74 | 45 | 1.0 | 4.0 | 0.00 | 0.00 | 0.00 | 63 | 989.3 |
| 20260905183318 | 73 | 0 | 2.0 | 4.0 | 0.00 | 0.00 | 0.00 | 63 | 989.3 |
| 20260905182318 | 73 | 23 | 4.0 | 9.0 | 0.00 | 0.00 | 0.00 | 63 | 989.3 |
| 20260905181319 | 74 | 225 | 3.0 | 13.0 | 0.00 | 0.00 | 0.00 | 62 | 989.4 |
| 20260905180319 | 73 | 293 | 2.0 | 5.0 | 0.00 | 0.00 | 0.00 | 64 | 989.4 |
| 20260905175318 | 74 | 270 | 3.0 | 7.0 | 0.00 | 0.00 | 0.00 | 66 | 989.5 |
| 20260905174319 | 73 | 158 | 2.0 | 4.0 | 0.00 | 0.00 | 0.00 | 67 | 989.5 |
| 20260905173319 | 72 | 315 | 2.0 | 7.0 | 0.00 | 0.00 | 0.00 | 68 | 989.5 |
| 20260905172319 | 71 | 315 | 4.0 | 6.0 | 0.00 | 0.00 | 0.00 | 69 | 989.3 |
| 20260905171318 | 71 | 315 | 2.0 | 4.0 | 0.00 | 0.00 | 0.00 | 69 | 989.3 |
| 20260905170318 | 71 | 0.0 | 2.0 | 0.00 | 0.00 | 0.00 | 69 | 989.3 | |
| 20260905165321 | 71 | 270 | 1.0 | 3.0 | 0.00 | 0.00 | 0.00 | 67 | 989.3 |
| 20260905164318 | 71 | 0.0 | 0.0 | 0.00 | 0.00 | 0.00 | 68 | 989.4 | |
| 20260905163318 | 72 | 338 | 3.0 | 10.0 | 0.00 | 0.00 | 0.00 | 66 | 989.4 |
| 20260905162319 | 72 | 315 | 3.0 | 5.0 | 0.00 | 0.00 | 0.00 | 68 | 989.6 |
| 20260905161319 | 72 | 0 | 4.0 | 8.0 | 0.00 | 0.00 | 0.00 | 70 | 989.5 |
| 20260905160320 | 72 | 45 | 1.0 | 5.0 | 0.00 | 0.00 | 0.00 | 69 | 989.6 |
| 20260905155318 | 71 | 315 | 2.0 | 5.0 | 0.00 | 0.00 | 0.00 | 72 | 989.6 |
| 20260905154318 | 70 | 45 | 2.0 | 5.0 | 0.00 | 0.00 | 0.00 | 73 | 989.7 |
| 20260905153319 | 69 | 90 | 2.0 | 4.0 | 0.00 | 0.00 | 0.00 | 73 | 989.7 |
| 20260905152318 | 69 | 315 | 2.0 | 6.0 | 0.00 | 0.00 | 0.00 | 72 | 989.7 |
| 20260905151318 | 69 | 315 | 1.0 | 3.0 | 0.00 | 0.00 | 0.00 | 71 | 989.7 |
| 20260905150321 | 69 | 90 | 2.0 | 6.0 | 0.00 | 0.00 | 0.00 | 72 | 989.6 |
| 20260905145320 | 70 | 68 | 2.0 | 3.0 | 0.00 | 0.00 | 0.00 | 70 | 989.7 |
| 20260905144318 | 69 | 0 | 2.0 | 5.0 | 0.00 | 0.00 | 0.00 | 74 | 989.7 |
| 20260905143318 | 69 | 45 | 3.0 | 9.0 | 0.00 | 0.00 | 0.00 | 74 | 989.7 |
| 20260905142319 | 68 | 270 | 4.0 | 9.0 | 0.00 | 0.00 | 0.00 | 77 | 989.8 |
| 20260905141320 | 68 | 315 | 4.0 | 10.0 | 0.00 | 0.00 | 0.00 | 80 | 989.8 |
| 20260905140318 | 67 | 315 | 1.0 | 3.0 | 0.00 | 0.00 | 0.00 | 81 | 989.8 |
| 20260905135319 | 66 | 45 | 2.0 | 4.0 | 0.00 | 0.00 | 0.00 | 83 | 989.8 |
| 20260905134318 | 65 | 0.0 | 3.0 | 0.00 | 0.00 | 0.00 | 84 | 989.8 | |
| 20260905133327 | 64 | 338 | 1.0 | 2.0 | 0.00 | 0.00 | 0.00 | 85 | 989.6 |
| 20260905132320 | 64 | 0.0 | 0.0 | 0.00 | 0.00 | 0.00 | 86 | 989.5 | |
| 20260905131320 | 64 | 0.0 | 0.0 | 0.00 | 0.00 | 0.00 | 86 | 989.4 | |
| 20260905130318 | 64 | 23 | 3.0 | 5.0 | 0.00 | 0.00 | 0.00 | 86 | 989.5 |
| 20260905125320 | 63 | 0.0 | 2.0 | 0.00 | 0.00 | 0.00 | 90 | 989.4 | |
| 20260905124320 | 62 | 0 | 1.0 | 2.0 | 0.00 | 0.00 | 0.00 | 90 | 989.3 |
| 20260905123320 | 62 | 0.0 | 0.0 | 0.00 | 0.00 | 0.00 | 89 | 989.4 | |
| 20260905122321 | 61 | 0.0 | 3.0 | 0.00 | 0.00 | 0.00 | 90 | 989.2 | |
| 20260905121320 | 61 | 0.0 | 0.0 | 0.00 | 0.00 | 0.00 | 90 | 989.1 | |
| 20260905120318 | 61 | 0.0 | 0.0 | 0.00 | 0.00 | 0.00 | 90 | 989.2 | |
| 20260905115321 | 61 | 0.0 | 2.0 | 0.00 | 0.00 | 0.00 | 91 | 989.1 | |
| 20260905114320 | 61 | 0.0 | 0.0 | 0.00 | 0.00 | 0.00 | 91 | 989.0 | |
| 20260905113320 | 60 | 0.0 | 0.0 | 0.00 | 0.00 | 0.00 | 91 | 988.9 | |
| 20260905112320 | 60 | 0.0 | 0.0 | 0.00 | 0.00 | 0.00 | 92 | 989.0 | |
| 20260905111320 | 60 | 0.0 | 0.0 | 0.00 | 0.00 | 0.00 | 92 | 988.9 | |
| 20260905110319 | 60 | 0.0 | 0.0 | 0.00 | 0.00 | 0.00 | 92 | 988.8 | |
| 20260905105319 | 60 | 0.0 | 0.0 | 0.00 | 0.00 | 0.00 | 92 | 988.8 | |
| 20260905104320 | 59 | 0.0 | 0.0 | 0.00 | 0.00 | 0.00 | 92 | 988.7 | |
| 20260905103320 | 59 | 0.0 | 0.0 | 0.00 | 0.00 | 0.00 | 92 | 988.7 | |
| 20260905102319 | 59 | 0.0 | 0.0 | 0.00 | 0.00 | 0.00 | 92 | 988.8 | |
| 20260905101321 | 59 | 0.0 | 0.0 | 0.00 | 0.00 | 0.00 | 92 | 988.7 | |
| 20260905100320 | 59 | 0.0 | 0.0 | 0.00 | 0.00 | 0.00 | 91 | 988.5 | |
| 20260905095319 | 59 | 0.0 | 0.0 | 0.00 | 0.00 | 0.00 | 91 | 988.6 | |
| 20260905094319 | 59 | 0.0 | 0.0 | 0.00 | 0.00 | 0.00 | 91 | 988.5 | |
| 20260905093319 | 59 | 0.0 | 0.0 | 0.00 | 0.00 | 0.00 | 91 | 988.4 | |
| 20260905092320 | 59 | 0.0 | 0.0 | 0.00 | 0.00 | 0.00 | 90 | 988.5 | |
| 20260905091320 | 59 | 0.0 | 0.0 | 0.00 | 0.00 | 0.00 | 90 | 988.4 | |
| 20260905090319 | 59 | 0.0 | 0.0 | 0.00 | 0.00 | 0.00 | 90 | 988.4 | |
| 20260905085320 | 59 | 0.0 | 0.0 | 0.00 | 0.00 | 0.00 | 89 | 988.4 | |
| 20260905084319 | 60 | 0.0 | 0.0 | 0.00 | 0.00 | 0.00 | 89 | 988.4 | |
| 20260905083320 | 60 | 0.0 | 0.0 | 0.00 | 0.00 | 0.00 | 88 | 988.5 | |
| 20260905082320 | 60 | 0.0 | 0.0 | 0.00 | 0.00 | 0.00 | 88 | 988.5 | |
| 20260905081319 | 60 | 0.0 | 0.0 | 0.00 | 0.00 | 0.00 | 88 | 988.4 | |
| 20260905080319 | 60 | 0.0 | 0.0 | 0.00 | 0.00 | 0.00 | 88 | 988.5 | |
| 20260905075319 | 60 | 0.0 | 0.0 | 0.00 | 0.00 | 0.00 | 88 | 988.5 | |
| 20260905074320 | 60 | 0.0 | 0.0 | 0.00 | 0.00 | 0.00 | 88 | 988.4 | |
| 20260905073355 | 60 | 0.0 | 0.0 | 0.00 | 0.00 | 0.00 | 87 | 988.5 | |
| 20260905073050 | 60 | 0.0 | 0.0 | 0.00 | 0.00 | 0.00 | 87 | 988.5 | |
| 20260905072020 | 61 | 0.0 | 0.0 | 0.00 | 0.00 | 0.00 | 87 | 988.7 | |
| 20260905071122 | 61 | 0.0 | 0.0 | 0.00 | 0.00 | 0.00 | 86 | 988.7 | |
| 20260905070620 | 61 | 0.0 | 0.0 | 0.00 | 0.00 | 0.00 | 86 | 988.7 | |
| 20260905065620 | 61 | 0.0 | 0.0 | 0.00 | 0.00 | 0.00 | 86 | 988.9 | |
| 20260905064619 | 61 | 0.0 | 0.0 | 0.00 | 0.00 | 0.00 | 86 | 989.0 | |
| 20260905063619 | 61 | 0.0 | 0.0 | 0.00 | 0.00 | 0.00 | 86 | 989.0 | |
| 20260905062619 | 61 | 0.0 | 0.0 | 0.00 | 0.00 | 0.00 | 86 | 989.0 | |
| 20260905061723 | 61 | 0.0 | 0.0 | 0.00 | 0.00 | 0.00 | 86 | 989.1 | |
| 20260905061019 | 61 | 0.0 | 0.0 | 0.00 | 0.00 | 0.00 | 86 | 989.2 | |
| 20260905060019 | 61 | 0.0 | 0.0 | 0.00 | 0.00 | 0.00 | 86 | 989.0 | |
| 20260905055021 | 61 | 0.0 | 0.0 | 0.00 | 0.00 | 0.00 | 87 | 989.0 | |
| 20260905054019 | 61 | 0.0 | 0.0 | 0.00 | 0.00 | 0.00 | 87 | 989.0 | |
| 20260905053019 | 61 | 0.0 | 0.0 | 0.00 | 0.00 | 0.00 | 86 | 989.0 | |
| 20260905052019 | 61 | 0.0 | 0.0 | 0.00 | 0.00 | 0.00 | 87 | 989.1 | |
| 20260905051019 | 61 | 0.0 | 0.0 | 0.00 | 0.00 | 0.00 | 85 | 989.1 | |
| 20260905050019 | 62 | 0.0 | 0.0 | 0.00 | 0.00 | 0.00 | 85 | 989.2 | |
| 20260905045019 | 63 | 0.0 | 0.0 | 0.00 | 0.00 | 0.00 | 83 | 989.2 | |
| 20260905044019 | 63 | 0.0 | 0.0 | 0.00 | 0.00 | 0.00 | 84 | 989.4 | |
| 20260905043019 | 62 | 0.0 | 0.0 | 0.00 | 0.00 | 0.00 | 84 | 989.3 | |
| 20260905042021 | 63 | 0.0 | 0.0 | 0.00 | 0.00 | 0.00 | 84 | 989.2 | |
| 20260905041019 | 63 | 0.0 | 0.0 | 0.00 | 0.00 | 0.00 | 84 | 989.3 | |
| 20260905040019 | 63 | 0.0 | 0.0 | 0.00 | 0.00 | 0.00 | 84 | 989.4 | |
| 20260905035019 | 63 | 0.0 | 0.0 | 0.00 | 0.00 | 0.00 | 84 | 989.3 | |
| 20260905034019 | 63 | 0.0 | 0.0 | 0.00 | 0.00 | 0.00 | 84 | 989.3 | |
| 20260905033019 | 63 | 0.0 | 0.0 | 0.00 | 0.00 | 0.00 | 84 | 989.3 | |
| 20260905032019 | 63 | 0.0 | 0.0 | 0.00 | 0.00 | 0.00 | 84 | 989.3 | |
| 20260905031021 | 63 | 0.0 | 0.0 | 0.00 | 0.00 | 0.00 | 84 | 989.2 | |
| 20260905030021 | 64 | 0.0 | 0.0 | 0.00 | 0.00 | 0.00 | 84 | 989.4 | |
| 20260905025021 | 64 | 0.0 | 0.0 | 0.00 | 0.00 | 0.00 | 83 | 989.3 | |
| 20260905024124 | 64 | 0.0 | 0.0 | 0.00 | 0.00 | 0.00 | 83 | 989.4 | |
| 20260905023620 | 64 | 0.0 | 0.0 | 0.00 | 0.00 | 0.00 | 83 | 989.4 | |
| 20260905022619 | 64 | 0.0 | 0.0 | 0.00 | 0.00 | 0.00 | 83 | 989.6 | |
| 20260905021619 | 65 | 0.0 | 0.0 | 0.00 | 0.00 | 0.00 | 83 | 989.6 | |
| 20260905020619 | 65 | 0.0 | 0.0 | 0.00 | 0.00 | 0.00 | 83 | 989.6 | |
| 20260905015619 | 65 | 0.0 | 0.0 | 0.00 | 0.00 | 0.00 | 82 | 989.6 | |
| 20260905014619 | 65 | 0.0 | 1.0 | 0.00 | 0.00 | 0.00 | 83 | 989.6 | |
| 20260905013619 | 66 | 0.0 | 0.0 | 0.00 | 0.00 | 0.00 | 82 | 989.7 | |
| 20260905012619 | 66 | 0.0 | 1.0 | 0.00 | 0.00 | 0.00 | 81 | 989.7 | |
| 20260905011619 | 66 | 0.0 | 0.0 | 0.00 | 0.00 | 0.00 | 81 | 989.7 | |
| 20260905010622 | 65 | 0.0 | 0.0 | 0.00 | 0.00 | 0.00 | 80 | 989.3 | |
| 20260905005619 | 65 | 0.0 | 0.0 | 0.00 | 0.00 | 0.00 | 81 | 989.3 | |
| 20260905004619 | 65 | 0.0 | 0.0 | 0.00 | 0.00 | 0.00 | 82 | 989.3 | |
| 20260905003621 | 65 | 0.0 | 0.0 | 0.00 | 0.00 | 0.00 | 81 | 989.3 | |
| 20260905002619 | 66 | 0.0 | 0.0 | 0.00 | 0.00 | 0.00 | 81 | 989.4 | |
| 20260905001654 | 66 | 0.0 | 0.0 | 0.00 | 0.00 | 0.00 | 80 | 989.3 | |
| 20260905001420 | 66 | 0.0 | 0.0 | 0.00 | 0.00 | 0.00 | 80 | 989.2 | |
| 20260905000418 | 66 | 0.0 | 0.0 | 0.00 | 0.00 | 0.00 | 80 | 989.1 | |
| 20260904235419 | 67 | 0.0 | 0.0 | 0.00 | 0.00 | 0.00 | 80 | 989.1 | |
| 20260904234419 | 67 | 0.0 | 0.0 | 0.00 | 0.00 | 0.00 | 79 | 989.0 | |
| 20260904233419 | 67 | 0.0 | 0.0 | 0.00 | 0.00 | 0.00 | 78 | 989.0 |